Time;durP1;ratioP1;P1;durP2;ratioP2;P2;SDS_P1;SDS_P2;PMS_P1;PMS_P2;Temp;Humidity;BMP_temperature;BMP_pressure;BME280_temperature;BME280_humidity;BME280_pressure;Samples;Min_cycle;Max_cycle;Signal;HPM_P1;HPM_P2
2023/11/01 00:01:45;;;;;;;;;;;;;;;13.38;44.00;100655.75;5061405;28;19969;-87
2023/11/01 00:04:10;;;;;;;;;;;;;;;13.32;44.07;100656.81;5061283;28;19921;-86
2023/11/01 00:06:36;;;;;;;;;;;;;;;13.24;44.06;100660.84;5061826;28;19928;-85
2023/11/01 00:09:01;;;;;;;;;;;;;;;13.17;44.05;100654.09;5064767;28;20400;-86
2023/11/01 00:11:26;;;;;;;;;;;;;;;13.17;44.33;100659.47;5058570;28;19924;-86
2023/11/01 00:13:51;;;;;;;;;;;;;;;13.18;44.25;100666.50;5063139;28;19921;-86
2023/11/01 00:16:17;;;;;;;;;;;;;;;13.17;44.13;100665.66;5064691;28;19917;-86
2023/11/01 00:18:42;;;;;;;;;;;;;;;13.17;44.23;100667.53;5061484;28;20388;-85
2023/11/01 00:21:07;;;;;;;;;;;;;;;13.19;44.37;100674.28;5055241;28;20398;-86
2023/11/01 00:23:33;;;;;;;;;;;;;;;13.22;44.51;100673.75;5058131;28;19927;-85
2023/11/01 00:25:58;;;;;;;;;;;;;;;13.24;44.59;100676.97;5059805;28;20376;-86
2023/11/01 00:28:23;;;;;;;;;;;;;;;13.23;44.50;100682.63;5064373;28;20019;-86
2023/11/01 00:30:49;;;;;;;;;;;;;;;13.20;44.68;100673.22;5061206;28;19917;-86
2023/11/01 00:33:14;;;;;;;;;;;;;;;13.19;44.65;100668.91;5059356;28;19939;-86
2023/11/01 00:35:39;;;;;;;;;;;;;;;13.20;44.56;100683.16;5059703;28;20304;-86
2023/11/01 00:38:05;;;;;;;;;;;;;;;13.17;44.68;100680.97;5059879;28;20277;-86
2023/11/01 00:40:31;;;;;;;;;;;;;;;13.16;44.65;100674.00;5061445;28;20320;-86
2023/11/01 00:42:56;;;;;;;;;;;;;;;13.15;44.78;100680.44;5059017;28;19916;-86
2023/11/01 00:45:21;;;;;;;;;;;;;;;13.11;44.74;100684.75;5059575;28;19971;-86
2023/11/01 00:47:47;;;;;;;;;;;;;;;13.09;44.35;100692.25;5062858;28;19928;-86
2023/11/01 00:50:12;;;;;;;;;;;;;;;13.06;44.68;100690.09;5059854;28;19962;-86
2023/11/01 00:52:37;;;;;;;;;;;;;;;13.07;44.51;100694.41;5060920;28;19928;-85
2023/11/01 00:55:04;;;;;;;;;;;;;;;13.04;44.61;100692.25;5058835;28;20359;-86
2023/11/01 00:57:32;;;;;;;;;;;;;;;13.04;43.96;100703.00;5063230;28;19925;-86
2023/11/01 00:59:57;;;;;;;;;;;;;;;12.99;44.47;100706.50;5063086;28;19967;-86
2023/11/01 01:02:23;;;;;;;;;;;;;;;12.94;44.46;100707.31;5057879;28;19993;-87
2023/11/01 01:04:48;;;;;;;;;;;;;;;12.87;44.44;100703.22;5063259;28;20350;-86
2023/11/01 01:07:13;;;;;;;;;;;;;;;12.77;44.44;100703.22;5057648;28;20360;-86
2023/11/01 01:09:38;;;;;;;;;;;;;;;12.70;44.56;100709.63;5062048;28;19929;-86
2023/11/01 01:12:04;;;;;;;;;;;;;;;12.65;44.64;100714.97;5059877;28;20143;-86
2023/11/01 01:14:29;;;;;;;;;;;;;;;12.65;44.78;100714.16;5058079;28;19917;-87
2023/11/01 01:16:55;;;;;;;;;;;;;;;12.62;44.68;100712.00;5060025;28;19931;-85
2023/11/01 01:19:22;;;;;;;;;;;;;;;12.60;44.92;100714.16;5054947;28;20376;-86
2023/11/01 01:21:47;;;;;;;;;;;;;;;12.58;44.89;100716.31;5055349;28;19969;-87
2023/11/01 01:24:12;;;;;;;;;;;;;;;12.55;44.84;100716.81;5055338;28;20404;-86
2023/11/01 01:26:38;;;;;;;;;;;;;;;12.51;45.09;100723.78;5060899;28;19927;-86
2023/11/01 01:29:03;;;;;;;;;;;;;;;12.49;44.85;100728.59;5057874;28;19920;-86
2023/11/01 01:31:29;;;;;;;;;;;;;;;12.45;45.14;100725.63;5056700;28;19920;-86
2023/11/01 01:33:54;;;;;;;;;;;;;;;12.42;45.09;100728.84;5060145;28;19921;-86
2023/11/01 01:36:19;;;;;;;;;;;;;;;12.38;45.05;100731.22;5061865;28;20409;-86
2023/11/01 01:38:45;;;;;;;;;;;;;;;12.35;45.46;100734.44;5060491;28;19921;-86
2023/11/01 01:41:10;;;;;;;;;;;;;;;12.32;45.13;100739.53;5061049;28;19965;-85
2023/11/01 01:43:35;;;;;;;;;;;;;;;12.28;45.42;100747.28;5056911;28;19931;-86
2023/11/01 01:46:11;;;;;;;;;;;;;;;12.26;45.43;100749.44;5059727;28;20411;-86
2023/11/01 01:48:37;;;;;;;;;;;;;;;12.20;45.44;100746.97;5056939;28;19963;-86
2023/11/01 01:51:07;;;;;;;;;;;;;;;12.18;45.42;100752.59;5059109;28;19973;-85
2023/11/01 01:53:33;;;;;;;;;;;;;;;12.15;45.62;100750.44;5059814;28;20006;-86
2023/11/01 01:55:58;;;;;;;;;;;;;;;12.14;45.78;100748.00;5058592;28;19920;-86
2023/11/01 01:58:27;;;;;;;;;;;;;;;12.11;45.91;100741.28;5061967;28;19923;-87
2023/11/01 02:00:54;;;;;;;;;;;;;;;12.09;45.81;100741.53;5057548;28;19954;-86
2023/11/01 02:03:19;;;;;;;;;;;;;;;12.10;46.00;100736.97;5063663;28;19974;-85
2023/11/01 02:05:44;;;;;;;;;;;;;;;12.13;45.86;100741.00;5065756;28;19958;-86
2023/11/01 02:08:10;;;;;;;;;;;;;;;12.12;46.14;100745.56;5062233;28;20686;-85
2023/11/01 02:10:36;;;;;;;;;;;;;;;12.08;45.95;100749.84;5063763;28;19927;-86
2023/11/01 02:13:14;;;;;;;;;;;;;;;12.03;45.77;100747.94;5065268;28;20062;-86
2023/11/01 02:15:40;;;;;;;;;;;;;;;11.96;45.71;100741.97;5064035;28;19963;-86
2023/11/01 02:18:06;;;;;;;;;;;;;;;11.92;45.77;100740.88;5058798;28;19924;-86
2023/11/01 02:20:36;;;;;;;;;;;;;;;11.90;45.96;100742.19;5061761;28;19917;-86
2023/11/01 02:23:01;;;;;;;;;;;;;;;11.87;46.09;100740.84;5062117;28;19928;-86
2023/11/01 02:25:28;;;;;;;;;;;;;;;11.85;46.12;100737.59;5063237;28;19934;-86
2023/11/01 02:27:54;;;;;;;;;;;;;;;11.85;46.16;100751.03;5062542;28;19917;-85
2023/11/01 02:30:20;;;;;;;;;;;;;;;11.84;46.01;100756.63;5060433;28;19927;-87
2023/11/01 02:32:48;;;;;;;;;;;;;;;11.83;46.14;100749.63;5061995;28;19920;-86
2023/11/01 02:35:17;;;;;;;;;;;;;;;11.83;45.87;100741.59;5062289;28;20008;-85
2023/11/01 02:37:42;;;;;;;;;;;;;;;11.77;45.98;100738.84;5059838;28;19989;-87
2023/11/01 02:40:09;;;;;;;;;;;;;;;11.75;45.87;100745.53;5062609;28;19924;-86
2023/11/01 02:42:44;;;;;;;;;;;;;;;11.72;46.12;100744.16;5063035;28;19916;-87
2023/11/01 02:45:10;;;;;;;;;;;;;;;11.63;46.24;100743.00;5059595;28;20003;-86
2023/11/01 02:47:36;;;;;;;;;;;;;;;11.58;46.03;100740.28;5063575;28;20015;-85
2023/11/01 02:50:03;;;;;;;;;;;;;;;11.52;46.20;100741.31;5061990;28;19924;-86
2023/11/01 02:52:29;;;;;;;;;;;;;;;11.43;46.10;100743.63;5065038;28;19935;-85
2023/11/01 02:54:54;;;;;;;;;;;;;;;11.35;46.54;100745.97;5060422;28;19921;-86
2023/11/01 02:57:19;;;;;;;;;;;;;;;11.34;46.28;100749.72;5061461;28;19963;-86
2023/11/01 02:59:44;;;;;;;;;;;;;;;11.31;46.52;100745.66;5062894;28;20001;-86
2023/11/01 03:02:10;;;;;;;;;;;;;;;11.28;46.40;100746.16;5057365;28;19916;-85
2023/11/01 03:04:35;;;;;;;;;;;;;;;11.28;46.50;100750.69;5062773;28;20601;-86
2023/11/01 03:07:00;;;;;;;;;;;;;;;11.23;46.45;100747.97;5063854;28;19936;-86
2023/11/01 03:09:26;;;;;;;;;;;;;;;11.17;46.38;100747.94;5064450;28;19924;-86
2023/11/01 03:11:51;;;;;;;;;;;;;;;11.15;46.56;100760.78;5062320;28;19939;-87
2023/11/01 03:14:16;;;;;;;;;;;;;;;11.08;46.28;100759.34;5062895;28;20308;-86
2023/11/01 03:16:41;;;;;;;;;;;;;;;11.03;46.69;100754.72;5060850;28;19966;-86
2023/11/01 03:19:07;;;;;;;;;;;;;;;10.98;46.50;100752.00;5060314;28;20176;-86
2023/11/01 03:21:32;;;;;;;;;;;;;;;10.93;46.73;100759.97;5063072;28;20380;-86
2023/11/01 03:23:57;;;;;;;;;;;;;;;10.93;46.93;100751.91;5060160;28;20611;-86
2023/11/01 03:26:23;;;;;;;;;;;;;;;10.99;46.92;100747.44;5062227;28;19920;-87
2023/11/01 03:28:48;;;;;;;;;;;;;;;11.02;46.69;100742.38;5061824;28;19966;-86
2023/11/01 03:31:13;;;;;;;;;;;;;;;11.01;46.84;100746.13;5059647;28;19956;-86
2023/11/01 03:33:39;;;;;;;;;;;;;;;10.96;46.53;100751.44;5060631;28;20372;-86
2023/11/01 03:36:07;;;;;;;;;;;;;;;10.96;46.56;100751.44;5061881;28;19921;-86
2023/11/01 03:38:32;;;;;;;;;;;;;;;10.95;46.74;100757.03;5059517;28;19917;-86
2023/11/01 03:40:58;;;;;;;;;;;;;;;10.92;46.91;100762.91;5060077;28;19978;-85
2023/11/01 03:43:23;;;;;;;;;;;;;;;10.93;47.21;100765.31;5064903;28;19978;-86
2023/11/01 03:45:49;;;;;;;;;;;;;;;10.92;47.11;100763.72;5060437;28;20291;-85
2023/11/01 03:48:14;;;;;;;;;;;;;;;10.96;47.24;100761.34;5059543;28;19929;-86
2023/11/01 03:50:40;;;;;;;;;;;;;;;10.96;47.20;100769.41;5060367;28;19916;-88
2023/11/01 03:53:06;;;;;;;;;;;;;;;10.99;47.23;100756.31;5058630;28;19920;-85
2023/11/01 03:55:32;;;;;;;;;;;;;;;11.00;47.05;100768.66;5060358;28;19999;-86
2023/11/01 03:57:57;;;;;;;;;;;;;;;10.99;47.06;100772.38;5057591;28;20070;-85
2023/11/01 04:00:22;;;;;;;;;;;;;;;10.98;47.37;100776.13;5058210;28;19939;-87
2023/11/01 04:02:50;;;;;;;;;;;;;;;11.01;47.33;100782.84;5060709;28;19924;-87
2023/11/01 04:05:15;;;;;;;;;;;;;;;11.04;47.06;100788.53;5062015;28;19924;-86
2023/11/01 04:07:40;;;;;;;;;;;;;;;11.07;47.21;100779.97;5058872;28;19924;-85
2023/11/01 04:10:09;;;;;;;;;;;;;;;11.09;47.35;100782.41;5060238;28;20007;-86
2023/11/01 04:12:35;;;;;;;;;;;;;;;11.12;47.59;100782.72;5059384;28;19916;-86
2023/11/01 04:15:00;;;;;;;;;;;;;;;11.17;47.54;100779.31;5058959;28;19955;-86
2023/11/01 04:17:26;;;;;;;;;;;;;;;11.19;47.20;100777.97;5063904;28;19924;-86
2023/11/01 04:19:51;;;;;;;;;;;;;;;11.24;47.51;100776.41;5060051;28;19924;-86
2023/11/01 04:22:16;;;;;;;;;;;;;;;11.29;47.36;100779.16;5060640;28;19964;-86
2023/11/01 04:24:41;;;;;;;;;;;;;;;11.33;47.53;100793.69;5059522;28;20323;-86
2023/11/01 04:27:07;;;;;;;;;;;;;;;11.36;47.71;100785.94;5059141;28;19929;-85
2023/11/01 04:29:32;;;;;;;;;;;;;;;11.41;47.32;100791.34;5059996;28;19932;-86
2023/11/01 04:31:58;;;;;;;;;;;;;;;11.43;47.30;100788.41;5057062;28;20375;-85
2023/11/01 04:34:23;;;;;;;;;;;;;;;11.46;47.28;100777.19;5054710;28;19927;-86
2023/11/01 04:36:48;;;;;;;;;;;;;;;11.48;47.42;100777.72;5058605;28;19923;-86
2023/11/01 04:39:13;;;;;;;;;;;;;;;11.52;47.39;100780.75;5059426;28;19925;-85
2023/11/01 04:41:39;;;;;;;;;;;;;;;11.55;47.41;100783.72;5058875;28;19920;-86
2023/11/01 04:44:04;;;;;;;;;;;;;;;11.58;47.54;100790.47;5057096;28;19928;-87
2023/11/01 04:46:29;;;;;;;;;;;;;;;11.59;47.47;100784.03;5061845;28;19925;-85
2023/11/01 04:48:55;;;;;;;;;;;;;;;11.58;47.54;100772.47;5060603;28;19963;-86
2023/11/01 04:51:20;;;;;;;;;;;;;;;11.61;47.57;100780.03;5058376;28;19921;-86
2023/11/01 04:53:45;;;;;;;;;;;;;;;11.63;47.52;100775.19;5064292;28;19923;-86
2023/11/01 04:56:11;;;;;;;;;;;;;;;11.67;47.52;100781.72;5058816;28;20022;-86
2023/11/01 04:58:36;;;;;;;;;;;;;;;11.72;47.54;100780.94;5059383;28;19917;-85
2023/11/01 05:01:05;;;;;;;;;;;;;;;11.76;47.59;100779.34;5057009;28;19924;-86
2023/11/01 05:03:30;;;;;;;;;;;;;;;11.82;47.57;100788.28;5056587;28;19921;-86
2023/11/01 05:05:56;;;;;;;;;;;;;;;11.86;47.48;100787.53;5056317;28;19926;-85
2023/11/01 05:08:21;;;;;;;;;;;;;;;11.90;47.80;100779.78;5058646;28;20009;-86
2023/11/01 05:10:46;;;;;;;;;;;;;;;11.93;47.42;100785.44;5058846;28;20384;-86
2023/11/01 05:13:12;;;;;;;;;;;;;;;11.96;47.45;100781.44;5060352;28;19917;-86
2023/11/01 05:15:39;;;;;;;;;;;;;;;11.99;47.68;100779.03;5060054;28;19920;-86
2023/11/01 05:18:05;;;;;;;;;;;;;;;12.04;47.40;100789.84;5058340;28;19920;-85
2023/11/01 05:20:30;;;;;;;;;;;;;;;12.07;47.56;100781.28;5057993;28;20392;-86
2023/11/01 05:22:55;;;;;;;;;;;;;;;12.09;47.61;100787.19;5058357;28;20293;-87
2023/11/01 05:25:21;;;;;;;;;;;;;;;12.13;47.39;100790.16;5055461;28;20378;-86
2023/11/01 05:27:46;;;;;;;;;;;;;;;12.17;47.52;100780.53;5061168;28;19963;-86
2023/11/01 05:30:15;;;;;;;;;;;;;;;12.19;47.94;100791.81;5058607;28;19936;-85
2023/11/01 05:32:45;;;;;;;;;;;;;;;12.22;47.65;100787.81;5060998;28;19920;-86
2023/11/01 05:35:12;;;;;;;;;;;;;;;12.23;47.55;100789.44;5060265;28;19924;-86
2023/11/01 05:37:37;;;;;;;;;;;;;;;12.26;47.72;100805.03;5063055;28;19942;-85
2023/11/01 05:40:12;;;;;;;;;;;;;;;12.29;47.53;100801.84;5062365;28;20623;-86
2023/11/01 05:42:38;;;;;;;;;;;;;;;12.30;47.85;100801.56;5066551;28;19920;-86
2023/11/01 05:45:03;;;;;;;;;;;;;;;12.33;47.87;100798.38;5057677;28;19916;-86
2023/11/01 05:47:29;;;;;;;;;;;;;;;12.36;47.67;100803.22;5060525;28;20419;-87
2023/11/01 05:49:55;;;;;;;;;;;;;;;12.39;47.66;100800.03;5059774;28;19950;-86
2023/11/01 05:52:20;;;;;;;;;;;;;;;12.43;47.54;100791.47;5060264;28;20802;-86
2023/11/01 05:54:45;;;;;;;;;;;;;;;12.46;47.68;100793.63;5062722;28;20042;-86
2023/11/01 05:57:11;;;;;;;;;;;;;;;12.48;47.62;100792.28;5063770;28;19928;-86
2023/11/01 05:59:36;;;;;;;;;;;;;;;12.51;47.66;100791.75;5065203;28;19916;-87
2023/11/01 06:02:01;;;;;;;;;;;;;;;12.54;47.75;100798.50;5063561;28;19916;-86
2023/11/01 06:04:26;;;;;;;;;;;;;;;12.54;47.63;100801.19;5060697;28;20553;-85
2023/11/01 06:06:52;;;;;;;;;;;;;;;12.56;47.69;100796.34;5061944;28;20032;-86
2023/11/01 06:09:19;;;;;;;;;;;;;;;12.57;47.63;100806.06;5064294;28;19927;-86
2023/11/01 06:11:45;;;;;;;;;;;;;;;12.59;47.95;100809.31;5064168;28;20396;-86
2023/11/01 06:14:10;;;;;;;;;;;;;;;12.58;47.65;100813.88;5059796;28;19943;-86
2023/11/01 06:16:36;;;;;;;;;;;;;;;12.59;47.92;100810.09;5064457;28;19916;-86
2023/11/01 06:19:01;;;;;;;;;;;;;;;12.60;47.70;100805.53;5064137;28;19928;-87
2023/11/01 06:21:27;;;;;;;;;;;;;;;12.61;47.67;100817.91;5066812;28;19925;-87
2023/11/01 06:23:52;;;;;;;;;;;;;;;12.61;47.63;100817.91;5062016;28;19928;-87
2023/11/01 06:26:19;;;;;;;;;;;;;;;12.62;47.87;100817.66;5059047;28;21692;-86
2023/11/01 06:28:44;;;;;;;;;;;;;;;12.66;47.89;100815.25;5064745;28;20368;-86
2023/11/01 06:31:10;;;;;;;;;;;;;;;12.71;47.73;100820.63;5066706;28;19994;-87
2023/11/01 06:33:36;;;;;;;;;;;;;;;12.74;47.70;100820.13;5065428;28;20701;-88
2023/11/01 06:36:01;;;;;;;;;;;;;;;12.75;47.95;100819.06;5064500;28;19916;-87
2023/11/01 06:38:26;;;;;;;;;;;;;;;12.78;47.80;100828.50;5061969;28;19928;-87
2023/11/01 06:40:51;;;;;;;;;;;;;;;12.78;47.78;100818.56;5060027;28;19947;-87
2023/11/01 06:43:17;;;;;;;;;;;;;;;12.81;47.70;100823.41;5061773;28;20531;-87
2023/11/01 06:45:42;;;;;;;;;;;;;;;12.84;47.64;100822.88;5064295;28;20366;-87
2023/11/01 06:48:09;;;;;;;;;;;;;;;12.86;47.88;100823.41;5057639;28;19917;-87
2023/11/01 06:50:34;;;;;;;;;;;;;;;12.91;47.82;100826.13;5064943;28;19916;-87
2023/11/01 06:53:00;;;;;;;;;;;;;;;12.96;47.70;100826.16;5054973;28;19955;-87
2023/11/01 06:55:25;;;;;;;;;;;;;;;12.98;47.89;100821.34;5062126;28;19920;-87
2023/11/01 06:57:51;;;;;;;;;;;;;;;13.00;47.60;100821.88;5063816;28;19923;-87
2023/11/01 07:00:16;;;;;;;;;;;;;;;13.04;47.73;100821.34;5063584;28;19921;-87
2023/11/01 07:02:41;;;;;;;;;;;;;;;13.07;47.56;100815.44;5065636;28;19928;-87
2023/11/01 07:05:07;;;;;;;;;;;;;;;13.11;47.60;100816.56;5067193;28;19916;-86
2023/11/01 07:07:32;;;;;;;;;;;;;;;13.15;47.76;100809.56;5060726;28;19925;-87
2023/11/01 07:09:58;;;;;;;;;;;;;;;13.18;47.78;100815.25;5062087;28;20007;-87
2023/11/01 07:12:23;;;;;;;;;;;;;;;13.21;47.91;100824.69;5061145;28;19986;-87
2023/11/01 07:14:49;;;;;;;;;;;;;;;13.24;47.57;100833.03;5060557;28;20000;-87
2023/11/01 07:17:14;;;;;;;;;;;;;;;13.27;47.77;100837.88;5057737;28;19925;-86
2023/11/01 07:19:39;;;;;;;;;;;;;;;13.32;47.74;100834.41;5063175;28;19925;-87
2023/11/01 07:22:05;;;;;;;;;;;;;;;13.38;47.61;100843.31;5063568;28;19948;-86
2023/11/01 07:24:30;;;;;;;;;;;;;;;13.41;47.55;100843.59;5062625;28;20435;-87
2023/11/01 07:26:55;;;;;;;;;;;;;;;13.38;47.31;100838.75;5060989;28;19984;-88
2023/11/01 07:29:21;;;;;;;;;;;;;;;13.36;47.51;100829.31;5067277;28;19965;-87
2023/11/01 07:31:46;;;;;;;;;;;;;;;13.35;47.64;100833.09;5063978;28;19924;-87
2023/11/01 07:34:11;;;;;;;;;;;;;;;13.40;47.59;100835.78;5060468;28;19920;-87
2023/11/01 07:36:37;;;;;;;;;;;;;;;13.43;47.54;100822.59;5063159;28;19925;-87
2023/11/01 07:39:02;;;;;;;;;;;;;;;13.47;47.46;100826.41;5063316;28;20026;-86
2023/11/01 07:41:27;;;;;;;;;;;;;;;13.50;47.25;100827.75;5063968;28;19916;-87
2023/11/01 07:43:53;;;;;;;;;;;;;;;13.50;47.47;100828.56;5062977;28;19916;-87
2023/11/01 07:46:18;;;;;;;;;;;;;;;13.55;47.29;100823.19;5059816;28;19963;-86
2023/11/01 07:48:44;;;;;;;;;;;;;;;13.60;47.35;100820.50;5065826;28;19916;-86
2023/11/01 07:51:10;;;;;;;;;;;;;;;13.69;47.23;100818.09;5059161;28;19920;-87
2023/11/01 07:53:35;;;;;;;;;;;;;;;13.78;47.17;100829.13;5061813;28;20328;-87
2023/11/01 07:56:01;;;;;;;;;;;;;;;13.83;46.92;100826.47;5062465;28;19920;-87
2023/11/01 07:58:26;;;;;;;;;;;;;;;13.88;46.83;100840.75;5064579;28;19916;-87
2023/11/01 08:00:52;;;;;;;;;;;;;;;13.86;46.59;100836.72;5062371;28;20550;-86
2023/11/01 08:03:18;;;;;;;;;;;;;;;13.82;46.73;100831.06;5061400;28;20396;-87
2023/11/01 08:05:43;;;;;;;;;;;;;;;13.86;46.80;100828.63;5063390;28;19932;-86
2023/11/01 08:08:09;;;;;;;;;;;;;;;13.93;46.91;100820.28;5064406;28;19917;-87
2023/11/01 08:10:34;;;;;;;;;;;;;;;13.98;46.62;100820.25;5058855;28;20380;-88
2023/11/01 08:12:59;;;;;;;;;;;;;;;14.01;46.77;100819.75;5061714;28;19981;-87
2023/11/01 08:15:25;;;;;;;;;;;;;;;14.06;46.62;100807.09;5060913;28;20011;-87
2023/11/01 08:17:51;;;;;;;;;;;;;;;14.13;46.30;100812.19;5065776;28;20034;-87
2023/11/01 08:20:16;;;;;;;;;;;;;;;14.14;46.22;100803.84;5058552;28;19921;-86
2023/11/01 08:22:42;;;;;;;;;;;;;;;14.18;46.23;100804.94;5060819;28;19920;-87
2023/11/01 08:25:08;;;;;;;;;;;;;;;14.24;46.12;100810.31;5063145;28;19966;-86
2023/11/01 08:27:33;;;;;;;;;;;;;;;14.29;46.17;100799.53;5064912;28;20411;-87
2023/11/01 08:30:01;;;;;;;;;;;;;;;14.34;45.95;100807.59;5060722;28;20289;-87
2023/11/01 08:32:26;;;;;;;;;;;;;;;14.38;45.98;100814.09;5062109;28;19920;-87
2023/11/01 08:34:53;;;;;;;;;;;;;;;14.41;45.89;100817.03;5065836;28;19985;-87
2023/11/01 08:37:18;;;;;;;;;;;;;;;14.45;45.83;100818.13;5062981;28;19966;-87
2023/11/01 08:39:43;;;;;;;;;;;;;;;14.48;45.53;100830.25;5062494;28;19956;-88
2023/11/01 08:42:09;;;;;;;;;;;;;;;14.52;45.78;100831.31;5062521;28;20414;-87
2023/11/01 08:44:34;;;;;;;;;;;;;;;14.53;45.79;100816.75;5062230;28;19920;-87
2023/11/01 08:47:01;;;;;;;;;;;;;;;14.55;45.44;100817.31;5061886;28;19925;-87
2023/11/01 08:49:26;;;;;;;;;;;;;;;14.56;45.63;100818.94;5059598;28;19933;-87
2023/11/01 08:51:52;;;;;;;;;;;;;;;14.54;45.38;100812.97;5058708;28;19994;-87
2023/11/01 08:54:17;;;;;;;;;;;;;;;14.59;45.54;100821.09;5061965;28;19923;-87
2023/11/01 08:56:42;;;;;;;;;;;;;;;14.61;45.44;100823.50;5060928;28;20002;-87
2023/11/01 08:59:07;;;;;;;;;;;;;;;14.61;45.55;100816.22;5062174;28;19952;-88
2023/11/01 09:01:36;;;;;;;;;;;;;;;14.67;45.39;100817.81;5064576;28;20385;-87
2023/11/01 09:04:01;;;;;;;;;;;;;;;14.72;45.51;100817.00;5065896;28;20339;-87
2023/11/01 09:06:27;;;;;;;;;;;;;;;14.79;45.45;100821.03;5064306;28;20521;-87
2023/11/01 09:08:52;;;;;;;;;;;;;;;14.86;44.99;100819.91;5061704;28;19920;-86
2023/11/01 09:11:23;;;;;;;;;;;;;;;14.87;45.03;100827.75;5069635;28;19932;-88
2023/11/01 09:13:48;;;;;;;;;;;;;;;14.90;45.03;100820.97;5071478;28;20356;-87
2023/11/01 09:16:13;;;;;;;;;;;;;;;14.94;45.10;100819.38;5063129;28;19999;-87
2023/11/01 09:18:39;;;;;;;;;;;;;;;14.99;45.05;100806.66;5059647;28;20092;-87
2023/11/01 09:21:04;;;;;;;;;;;;;;;15.06;45.25;100809.88;5069566;28;19924;-87
2023/11/01 09:23:29;;;;;;;;;;;;;;;15.12;44.84;100807.97;5066436;28;19923;-87
2023/11/01 09:25:55;;;;;;;;;;;;;;;15.16;44.81;100811.72;5063738;28;20015;-87
2023/11/01 09:28:20;;;;;;;;;;;;;;;15.20;44.69;100818.19;5064945;28;19954;-88
2023/11/01 09:30:45;;;;;;;;;;;;;;;15.21;44.75;100821.69;5066398;28;20363;-86
2023/11/01 09:33:11;;;;;;;;;;;;;;;15.21;44.82;100810.88;5067560;28;19916;-86
2023/11/01 09:35:36;;;;;;;;;;;;;;;15.23;44.90;100811.41;5065220;28;19966;-87
2023/11/01 09:38:02;;;;;;;;;;;;;;;15.25;44.96;100812.75;5064026;28;19913;-87
2023/11/01 09:40:27;;;;;;;;;;;;;;;15.28;45.05;100806.81;5064956;28;20513;-87
2023/11/01 09:42:53;;;;;;;;;;;;;;;15.34;45.01;100805.69;5066796;28;19987;-87
2023/11/01 09:45:19;;;;;;;;;;;;;;;15.41;44.75;100795.38;5067075;28;19920;-87
2023/11/01 09:47:44;;;;;;;;;;;;;;;15.45;45.00;100784.84;5072089;28;20296;-85
2023/11/01 09:50:12;;;;;;;;;;;;;;;15.49;44.91;100790.50;5064709;28;19999;-86
2023/11/01 09:52:37;;;;;;;;;;;;;;;15.47;44.63;100787.28;5065152;28;19924;-88
2023/11/01 09:55:04;;;;;;;;;;;;;;;15.47;44.80;100789.97;5076044;28;19920;-87
2023/11/01 09:57:30;;;;;;;;;;;;;;;15.51;44.86;100791.03;5072302;28;19999;-88
2023/11/01 09:59:56;;;;;;;;;;;;;;;15.56;44.60;100781.00;5062423;28;20233;-87
2023/11/01 10:02:22;;;;;;;;;;;;;;;15.60;44.62;100770.47;5066089;28;20323;-87
2023/11/01 10:04:48;;;;;;;;;;;;;;;15.68;44.71;100769.88;5068691;28;19922;-87
2023/11/01 10:07:13;;;;;;;;;;;;;;;15.76;44.58;100763.88;5063899;28;19920;-87
2023/11/01 10:09:39;;;;;;;;;;;;;;;15.81;44.70;100761.13;5063672;28;19925;-87
2023/11/01 10:12:07;;;;;;;;;;;;;;;15.91;44.57;100761.03;5070587;28;19991;-88
2023/11/01 10:14:33;;;;;;;;;;;;;;;16.02;44.52;100757.19;5065023;28;19973;-87
2023/11/01 10:16:58;;;;;;;;;;;;;;;16.12;44.29;100755.44;5064977;28;19928;-86
2023/11/01 10:19:24;;;;;;;;;;;;;;;16.18;44.29;100763.25;5065045;28;19947;-87
2023/11/01 10:21:53;;;;;;;;;;;;;;;16.21;44.28;100759.16;5068118;28;20396;-88
2023/11/01 10:24:20;;;;;;;;;;;;;;;16.25;44.50;100746.69;5065295;28;19928;-87
2023/11/01 10:26:45;;;;;;;;;;;;;;;16.28;44.19;100744.22;5062971;28;19932;-87
2023/11/01 10:29:11;;;;;;;;;;;;;;;16.37;44.04;100736.28;5067249;28;19917;-88
2023/11/01 10:31:36;;;;;;;;;;;;;;;16.46;43.98;100728.34;5060767;28;19921;-88
2023/11/01 10:34:11;;;;;;;;;;;;;;;16.53;43.62;100724.22;5063415;28;20292;-88
2023/11/01 10:36:50;;;;;;;;;;;;;;;16.62;43.80;100722.47;5060991;28;20541;-86
2023/11/01 10:39:17;;;;;;;;;;;;;;;16.66;43.78;100721.91;5063483;28;19927;-87
2023/11/01 10:41:42;;;;;;;;;;;;;;;16.77;43.48;100712.59;5063488;28;19920;-87
2023/11/01 10:44:08;;;;;;;;;;;;;;;16.94;43.43;100712.91;5072246;28;20400;-89
2023/11/01 10:46:34;;;;;;;;;;;;;;;17.05;43.31;100703.53;5060963;28;19943;-87
2023/11/01 10:49:00;;;;;;;;;;;;;;;17.19;43.11;100696.31;5065687;28;19920;-86
2023/11/01 10:51:25;;;;;;;;;;;;;;;17.29;42.75;100702.69;5060998;28;19916;-88
2023/11/01 10:53:51;;;;;;;;;;;;;;;17.33;42.74;100696.38;5059304;28;19916;-87
2023/11/01 10:56:17;;;;;;;;;;;;;;;17.36;42.81;100692.28;5063511;28;19917;-87
2023/11/01 10:58:43;;;;;;;;;;;;;;;17.39;42.65;100687.06;5062291;28;20473;-87
2023/11/01 11:01:20;;;;;;;;;;;;;;;17.42;42.65;100686.50;5065346;28;19921;-88
2023/11/01 11:03:52;;;;;;;;;;;;;;;17.45;42.70;100685.09;5062892;28;19925;-88
2023/11/01 11:06:20;;;;;;;;;;;;;;;17.51;42.96;100690.13;5061225;28;19932;-88
2023/11/01 11:09:05;;;;;;;;;;;;;;;17.52;42.42;100675.50;5063134;28;20015;-88
2023/11/01 11:11:31;;;;;;;;;;;;;;;17.60;42.58;100673.22;5063767;28;19928;-88
2023/11/01 11:13:57;;;;;;;;;;;;;;;17.67;42.48;100670.94;5064911;28;19920;-87
2023/11/01 11:16:23;;;;;;;;;;;;;;;17.73;42.55;100673.28;5060736;28;19985;-90
2023/11/01 11:18:48;;;;;;;;;;;;;;;17.78;42.47;100662.38;5063415;28;19930;-87
2023/11/01 11:21:32;;;;;;;;;;;;;;;17.85;42.39;100663.88;5063231;28;19923;-89
2023/11/01 11:23:57;;;;;;;;;;;;;;;17.83;42.38;100657.94;5060341;28;19941;-88
2023/11/01 11:26:38;;;;;;;;;;;;;;;17.87;42.13;100658.97;5067042;28;19924;-89
2023/11/01 11:29:23;;;;;;;;;;;;;;;17.86;42.08;100652.72;5062396;28;19927;-89
2023/11/01 11:31:57;;;;;;;;;;;;;;;17.85;42.15;100656.53;5068477;28;19924;-88
2023/11/01 11:34:22;;;;;;;;;;;;;;;17.87;42.17;100653.53;5063200;28;19984;-87
2023/11/01 11:37:03;;;;;;;;;;;;;;;17.95;42.24;100644.69;5064705;28;20015;-89
2023/11/01 11:39:48;;;;;;;;;;;;;;;18.09;42.42;100643.59;5067964;28;19924;-88
2023/11/01 11:42:32;;;;;;;;;;;;;;;18.28;42.36;100648.13;5062091;28;19917;-87
2023/11/01 11:45:01;;;;;;;;;;;;;;;18.40;42.25;100641.09;5065712;28;20002;-88
2023/11/01 11:47:29;;;;;;;;;;;;;;;18.47;42.18;100637.97;5065928;28;19929;-89
2023/11/01 11:50:07;;;;;;;;;;;;;;;18.57;42.03;100635.06;5060211;28;19917;-89
2023/11/01 11:52:32;;;;;;;;;;;;;;;18.69;42.12;100640.81;5061350;28;19920;-89
2023/11/01 11:54:58;;;;;;;;;;;;;;;18.84;42.03;100633.41;5064246;28;20022;-89
2023/11/01 11:57:25;;;;;;;;;;;;;;;19.09;41.85;100634.75;5070579;28;19920;-88
2023/11/01 11:59:59;;;;;;;;;;;;;;;19.27;41.38;100622.91;5061104;28;20380;-89
2023/11/01 12:02:25;;;;;;;;;;;;;;;19.45;41.54;100627.34;5053966;28;19967;-89
2023/11/01 12:04:51;;;;;;;;;;;;;;;19.60;41.31;100628.91;5061434;28;19931;-89
2023/11/01 12:07:21;;;;;;;;;;;;;;;19.76;41.43;100621.97;5061684;28;20015;-89
2023/11/01 12:09:53;;;;;;;;;;;;;;;19.87;40.89;100622.47;5061992;28;19924;-88
2023/11/01 12:12:18;;;;;;;;;;;;;;;19.95;41.28;100613.56;5061132;28;19920;-88
2023/11/01 12:14:46;;;;;;;;;;;;;;;20.10;40.67;100612.31;5056761;28;20055;-88
2023/11/01 12:17:12;;;;;;;;;;;;;;;20.21;41.06;100613.66;5065555;28;20007;-89
2023/11/01 12:19:44;;;;;;;;;;;;;;;20.39;40.89;100606.34;5064271;28;20467;-88
2023/11/01 12:22:09;;;;;;;;;;;;;;;20.57;40.83;100607.19;5064205;28;19916;-87
2023/11/01 12:24:38;;;;;;;;;;;;;;;20.75;40.58;100604.19;5061093;28;19942;-89
2023/11/01 12:27:10;;;;;;;;;;;;;;;20.97;40.14;100611.38;5058414;28;19921;-89
2023/11/01 12:29:41;;;;;;;;;;;;;;;21.16;40.41;100604.81;5067237;28;19970;-89
2023/11/01 12:32:14;;;;;;;;;;;;;;;21.35;39.92;100606.09;5066410;28;20510;-88